Terminal Aerodrome Forecast
Issued by NWS Wilmington, OH

Current Version | Previous Version | Graphics & Text | Print | Product List | Glossary Off
Versions: 1 2 3 4 5 6 7 8 9 10 11 12

000
FTUS41 KILN 190500
TAFCMH
TAF
KCMH 190520Z 1906/2006 02005KT P6SM SCT250
     FM191300 05010G18KT P6SM FEW035
     FM200000 04004KT P6SM SKC=

USA.gov is the U.S. government's official web portal to all federal, state and local government web resources and services.